createdAt,value
2022-07-26T00:01:41.228Z,45.30
2022-07-26T00:07:01.827Z,45.04
2022-07-26T00:12:22.570Z,44.78
2022-07-26T00:17:43.243Z,44.96
2022-07-26T00:23:03.945Z,44.65
2022-07-26T00:28:24.676Z,44.99
2022-07-26T00:33:45.272Z,44.88
2022-07-26T00:39:06.348Z,44.66
2022-07-26T00:44:40.603Z,44.88
2022-07-26T00:50:01.724Z,44.64
2022-07-26T00:55:22.837Z,44.57
2022-07-26T01:00:43.741Z,44.99
2022-07-26T01:06:05.563Z,45.01
2022-07-26T01:11:26.224Z,45.20
2022-07-26T01:16:47.443Z,45.04
2022-07-26T01:22:13.885Z,44.75
2022-07-26T01:27:39.424Z,45.30
2022-07-26T01:33:00.719Z,45.19
2022-07-26T01:38:27.556Z,45.06
2022-07-26T01:43:48.132Z,45.34
2022-07-26T01:49:09.435Z,45.32
2022-07-26T01:54:30.495Z,45.48
2022-07-26T01:59:51.052Z,45.56
2022-07-26T02:05:12.657Z,45.86
2022-07-26T02:10:52.749Z,45.84
2022-07-26T02:16:15.140Z,45.82
2022-07-26T02:21:35.854Z,46.08
2022-07-26T02:26:57.638Z,46.81
2022-07-26T02:32:18.843Z,47.00
2022-07-26T02:37:43.830Z,47.33
2022-07-26T02:43:07.409Z,47.70
2022-07-26T02:48:28.159Z,48.18
2022-07-26T02:53:48.711Z,48.57
2022-07-26T02:59:09.320Z,49.19
2022-07-26T03:04:30.455Z,49.42
2022-07-26T03:09:51.056Z,49.71
2022-07-26T03:15:12.233Z,50.11
2022-07-26T03:20:32.949Z,50.42
2022-07-26T03:25:53.814Z,50.47
2022-07-26T03:31:14.756Z,50.86
2022-07-26T03:36:35.362Z,51.15
2022-07-26T03:41:55.957Z,51.23
2022-07-26T03:47:16.798Z,51.59
2022-07-26T03:52:37.469Z,51.79
2022-07-26T03:57:58.453Z,52.27
2022-07-26T04:03:19.237Z,52.04
2022-07-26T04:08:40.106Z,51.79
2022-07-26T04:14:01.249Z,52.10
2022-07-26T04:19:21.963Z,52.28
2022-07-26T04:24:42.575Z,52.06
2022-07-26T04:30:04.768Z,52.07
2022-07-26T04:35:26.072Z,52.26
2022-07-26T04:40:47.138Z,52.19
2022-07-26T04:46:09.457Z,52.39
2022-07-26T04:51:30.022Z,52.42
2022-07-26T04:56:50.808Z,52.28
2022-07-26T05:02:11.644Z,52.44
2022-07-26T05:07:47.720Z,52.58
2022-07-26T05:13:08.710Z,52.59
2022-07-26T05:18:31.963Z,52.66
2022-07-26T05:24:07.983Z,52.75
2022-07-26T05:29:28.829Z,52.73
2022-07-26T05:34:49.865Z,52.42
2022-07-26T05:40:11.857Z,52.67
2022-07-26T05:45:32.620Z,52.97
2022-07-26T05:50:53.195Z,52.88
2022-07-26T05:56:13.843Z,53.03
2022-07-26T06:01:35.076Z,53.01
2022-07-26T06:06:56.829Z,52.86
2022-07-26T06:12:17.710Z,52.84
2022-07-26T06:17:41.308Z,53.02
2022-07-26T06:23:02.010Z,53.27
2022-07-26T06:28:22.684Z,53.24
2022-07-26T06:33:43.244Z,53.20
2022-07-26T06:39:04.941Z,53.09
2022-07-26T06:44:26.492Z,53.21
2022-07-26T06:49:47.247Z,53.23
2022-07-26T06:55:09.177Z,53.23
2022-07-26T07:00:33.224Z,53.31
2022-07-26T07:05:53.783Z,53.18
2022-07-26T07:11:14.394Z,53.74
2022-07-26T07:16:38.606Z,53.32
2022-07-26T07:21:59.701Z,53.63
2022-07-26T07:27:20.982Z,53.92
2022-07-26T07:32:41.489Z,54.06
2022-07-26T07:38:02.079Z,53.99
2022-07-26T07:43:22.580Z,54.19
2022-07-26T07:48:47.397Z,54.09
2022-07-26T07:54:09.395Z,54.00
2022-07-26T07:59:30.299Z,53.84
2022-07-26T08:04:51.022Z,53.69
2022-07-26T08:10:11.683Z,53.82
2022-07-26T08:15:32.541Z,53.71
2022-07-26T08:20:53.771Z,54.05
2022-07-26T08:26:14.381Z,53.08
2022-07-26T08:31:35.120Z,52.27
2022-07-26T08:37:16.077Z,51.90
2022-07-26T08:42:36.905Z,52.16
2022-07-26T08:53:40.125Z,51.78
2022-07-26T08:59:18.585Z,51.42
2022-07-26T09:04:45.156Z,51.13
2022-07-26T09:10:09.458Z,51.07
2022-07-26T09:15:30.388Z,50.78
2022-07-26T09:20:51.272Z,49.75
2022-07-26T09:26:11.829Z,49.28
2022-07-26T09:31:33.106Z,48.82
2022-07-26T09:36:55.275Z,49.27
2022-07-26T09:42:28.489Z,48.58
2022-07-26T09:47:49.842Z,48.75
2022-07-26T09:53:13.246Z,48.16
2022-07-26T09:58:34.025Z,47.32
2022-07-26T10:03:55.250Z,47.13
2022-07-26T10:09:17.190Z,46.32
2022-07-26T10:14:45.874Z,46.18
2022-07-26T10:20:16.901Z,46.59
2022-07-26T10:25:49.114Z,45.89
2022-07-26T10:31:25.970Z,45.41
2022-07-26T10:36:57.825Z,44.99
2022-07-26T10:42:19.771Z,44.49
2022-07-26T10:48:15.603Z,44.71
2022-07-26T10:53:36.584Z,44.94
2022-07-26T10:58:57.555Z,44.18
2022-07-26T11:04:24.690Z,44.39
2022-07-26T11:09:45.420Z,43.19
2022-07-26T11:15:19.263Z,43.57
2022-07-26T11:20:41.145Z,43.60
2022-07-26T11:26:04.603Z,44.43
2022-07-26T11:31:49.412Z,43.38
2022-07-26T11:37:16.200Z,43.30
2022-07-26T11:42:37.288Z,43.23
2022-07-26T11:47:59.017Z,42.72
2022-07-26T11:53:23.263Z,43.30
2022-07-26T11:58:46.322Z,43.15
2022-07-26T12:04:19.492Z,43.14
2022-07-26T12:09:50.443Z,43.18
2022-07-26T12:15:12.592Z,42.58
2022-07-26T12:20:33.569Z,42.27
2022-07-26T12:25:54.208Z,42.30
2022-07-26T12:31:32.939Z,41.75
2022-07-26T12:36:54.010Z,41.35
2022-07-26T12:42:33.062Z,41.30
2022-07-26T12:47:57.136Z,41.52
2022-07-26T12:53:17.997Z,41.67
2022-07-26T12:58:38.666Z,41.77
2022-07-26T13:04:00.135Z,41.47
2022-07-26T13:09:20.862Z,41.09
2022-07-26T13:14:42.258Z,41.06
2022-07-26T13:20:02.891Z,40.61
2022-07-26T13:25:23.745Z,41.25
2022-07-26T13:30:45.898Z,40.90
2022-07-26T13:36:06.661Z,40.77
2022-07-26T13:41:27.530Z,40.79
2022-07-26T13:46:51.739Z,40.53
2022-07-26T13:52:16.674Z,40.25
2022-07-26T13:57:48.030Z,40.66
2022-07-26T14:03:17.463Z,40.33
2022-07-26T14:08:38.618Z,40.04
2022-07-26T14:13:59.356Z,40.24
2022-07-26T14:19:20.097Z,39.85
2022-07-26T14:24:40.916Z,39.55
2022-07-26T14:30:02.480Z,39.73
2022-07-26T14:35:23.054Z,39.02
2022-07-26T14:40:43.710Z,39.25
2022-07-26T14:46:04.866Z,39.35
2022-07-26T14:51:25.678Z,39.50
2022-07-26T14:56:48.213Z,38.72
2022-07-26T15:02:11.876Z,38.84
2022-07-26T15:07:32.697Z,38.93
2022-07-26T15:12:53.703Z,38.74
2022-07-26T15:18:14.420Z,38.97
2022-07-26T15:23:35.110Z,38.66
2022-07-26T15:28:56.052Z,38.70
2022-07-26T15:34:16.796Z,38.60
2022-07-26T15:39:37.474Z,38.86
2022-07-26T15:44:58.550Z,38.87
2022-07-26T15:50:19.193Z,38.63
2022-07-26T15:55:40.782Z,38.65
2022-07-26T16:01:01.625Z,38.70
2022-07-26T16:06:22.365Z,38.68
2022-07-26T16:11:43.029Z,38.62
2022-07-26T16:17:03.991Z,38.37
2022-07-26T16:22:25.052Z,38.45
2022-07-26T16:27:46.080Z,38.11
2022-07-26T16:33:06.894Z,38.04
2022-07-26T16:38:27.436Z,38.16
2022-07-26T16:43:48.101Z,38.08
2022-07-26T16:49:09.216Z,37.91
2022-07-26T16:54:31.143Z,38.27
2022-07-26T16:59:51.683Z,39.56
2022-07-26T17:05:12.448Z,38.57
2022-07-26T17:10:33.116Z,39.56
2022-07-26T17:15:54.257Z,39.95
2022-07-26T17:21:15.127Z,40.15
2022-07-26T17:26:36.465Z,40.08
2022-07-26T17:31:58.171Z,40.63
2022-07-26T17:37:18.772Z,40.38
2022-07-26T17:42:42.678Z,40.50
2022-07-26T17:48:06.397Z,40.34
2022-07-26T17:53:34.151Z,39.86
2022-07-26T17:58:55.906Z,39.21
2022-07-26T18:04:18.007Z,40.24
2022-07-26T18:09:38.672Z,40.55
2022-07-26T18:14:59.410Z,40.14
2022-07-26T18:20:20.127Z,40.37
2022-07-26T18:25:45.304Z,40.08
2022-07-26T18:31:06.180Z,40.45
2022-07-26T18:36:31.712Z,40.30
2022-07-26T18:41:52.340Z,40.24
2022-07-26T18:47:13.026Z,40.40
2022-07-26T18:52:33.893Z,40.40
2022-07-26T18:57:55.008Z,40.38
2022-07-26T19:03:16.696Z,40.76
2022-07-26T19:08:37.364Z,40.32
2022-07-26T19:13:58.033Z,40.48
2022-07-26T19:19:20.248Z,40.20
2022-07-26T19:24:40.922Z,39.98
2022-07-26T19:30:01.778Z,40.00
2022-07-26T19:35:23.007Z,40.07
2022-07-26T19:40:44.678Z,40.25
2022-07-26T19:46:05.830Z,40.23
2022-07-26T19:51:26.727Z,40.21
2022-07-26T19:56:47.725Z,40.51
2022-07-26T20:02:08.329Z,40.72
2022-07-26T20:07:29.406Z,41.04
2022-07-26T20:12:50.114Z,41.13
2022-07-26T20:18:10.926Z,40.93
2022-07-26T20:23:33.133Z,41.03
2022-07-26T20:28:55.332Z,41.44
2022-07-26T20:34:16.156Z,41.30
2022-07-26T20:39:36.864Z,41.43
2022-07-26T20:44:57.592Z,41.44
2022-07-26T20:50:19.171Z,41.82
2022-07-26T20:55:40.875Z,41.86
2022-07-26T21:01:01.666Z,41.92
2022-07-26T21:06:22.280Z,42.34
2022-07-26T21:11:45.508Z,42.30
2022-07-26T21:17:11.297Z,42.24
2022-07-26T21:22:33.308Z,42.55
2022-07-26T21:27:54.006Z,42.82
2022-07-26T21:33:14.970Z,42.82
2022-07-26T21:38:35.691Z,43.23
2022-07-26T21:43:56.195Z,43.26
2022-07-26T21:49:18.433Z,43.21
2022-07-26T21:54:39.161Z,43.68
2022-07-26T21:59:59.954Z,44.07
2022-07-26T22:05:35.750Z,43.91
2022-07-26T22:10:56.617Z,44.33
2022-07-26T22:16:17.535Z,44.58
2022-07-26T22:21:38.570Z,44.33
2022-07-26T22:26:59.495Z,44.64
2022-07-26T22:32:20.397Z,44.78
2022-07-26T22:37:41.510Z,45.08
2022-07-26T22:43:02.967Z,45.17
2022-07-26T22:48:23.900Z,45.77
2022-07-26T22:53:44.789Z,45.99
2022-07-26T22:59:05.456Z,45.98
2022-07-26T23:04:26.007Z,45.82
2022-07-26T23:09:48.656Z,45.88
2022-07-26T23:15:10.431Z,46.56
2022-07-26T23:20:31.105Z,46.99
2022-07-26T23:25:51.839Z,47.05
2022-07-26T23:31:14.705Z,47.01
2022-07-26T23:36:35.407Z,46.94
2022-07-26T23:41:56.335Z,47.18
2022-07-26T23:47:17.245Z,46.93
2022-07-26T23:52:38.291Z,47.23
2022-07-26T23:57:58.968Z,47.20
